createdAt,value
2022-09-23T00:02:07.437Z,100.00
2022-09-23T00:04:35.645Z,100.00
2022-09-23T00:07:05.321Z,100.00
2022-09-23T00:09:38.762Z,100.00
2022-09-23T00:12:09.196Z,100.00
2022-09-23T00:14:38.965Z,100.00
2022-09-23T00:17:07.418Z,100.00
2022-09-23T00:19:35.609Z,100.00
2022-09-23T00:22:05.270Z,100.00
2022-09-23T00:24:40.306Z,100.00
2022-09-23T00:27:08.328Z,100.00
2022-09-23T00:29:36.977Z,100.00
2022-09-23T00:32:06.166Z,100.00
2022-09-23T00:34:34.207Z,100.00
2022-09-23T00:37:02.393Z,100.00
2022-09-23T00:39:34.847Z,100.00
2022-09-23T00:42:03.057Z,100.00
2022-09-23T00:44:46.819Z,100.00
2022-09-23T00:47:20.263Z,100.00
2022-09-23T00:49:53.337Z,100.00
2022-09-23T00:52:25.258Z,100.00
2022-09-23T00:54:57.636Z,100.00
2022-09-23T00:57:27.828Z,100.00
2022-09-23T00:59:56.437Z,100.00
2022-09-23T01:02:28.476Z,100.00
2022-09-23T01:04:57.198Z,100.00
2022-09-23T01:07:25.757Z,100.00
2022-09-23T01:09:55.331Z,100.00
2022-09-23T01:12:37.798Z,100.00
2022-09-23T01:15:15.344Z,100.00
2022-09-23T01:17:53.297Z,100.00
2022-09-23T01:20:48.039Z,100.00
2022-09-23T01:23:49.748Z,100.00
2022-09-23T01:26:44.136Z,100.00
2022-09-23T01:29:35.565Z,100.00
2022-09-23T01:32:17.363Z,100.00
2022-09-23T01:34:51.582Z,100.00
2022-09-23T01:37:29.584Z,100.00
2022-09-23T01:40:03.204Z,100.00
2022-09-23T01:42:38.262Z,100.00
2022-09-23T01:45:12.697Z,100.00
2022-09-23T01:47:49.444Z,100.00
2022-09-23T01:50:34.655Z,100.00
2022-09-23T01:53:07.847Z,100.00
2022-09-23T01:55:41.491Z,100.00
2022-09-23T01:58:13.349Z,100.00
2022-09-23T02:00:49.716Z,100.00
2022-09-23T02:03:27.833Z,100.00
2022-09-23T02:06:00.538Z,100.00
2022-09-23T02:08:44.201Z,100.00
2022-09-23T02:11:15.105Z,100.00
2022-09-23T02:13:50.430Z,100.00
2022-09-23T02:16:28.055Z,100.00
2022-09-23T02:19:03.834Z,100.00
2022-09-23T02:21:36.368Z,100.00
2022-09-23T02:24:11.136Z,100.00
2022-09-23T02:26:48.942Z,100.00
2022-09-23T02:29:22.718Z,100.00
2022-09-23T02:31:59.504Z,100.00
2022-09-23T02:34:47.544Z,100.00
2022-09-23T02:37:27.682Z,100.00
2022-09-23T02:40:03.391Z,100.00
2022-09-23T02:42:46.490Z,100.00
2022-09-23T02:45:15.026Z,100.00
2022-09-23T02:47:48.042Z,100.00
2022-09-23T02:50:21.973Z,100.00
2022-09-23T02:52:50.933Z,100.00
2022-09-23T02:55:23.518Z,100.00
2022-09-23T02:57:53.465Z,100.00
2022-09-23T03:00:21.802Z,100.00
2022-09-23T03:03:07.693Z,100.00
2022-09-23T03:08:53.496Z,100.00
2022-09-23T03:11:22.328Z,100.00
2022-09-23T03:14:07.976Z,100.00
2022-09-23T03:16:44.021Z,100.00
2022-09-23T03:19:24.896Z,100.00
2022-09-23T03:22:11.612Z,100.00
2022-09-23T03:24:41.214Z,100.00
2022-09-23T03:27:14.720Z,100.00
2022-09-23T03:29:47.683Z,100.00
2022-09-23T03:32:19.640Z,100.00
2022-09-23T03:34:53.884Z,100.00
2022-09-23T03:37:48.697Z,100.00
2022-09-23T03:40:23.075Z,100.00
2022-09-23T03:42:51.381Z,100.00
2022-09-23T03:45:26.472Z,100.00
2022-09-23T03:47:54.639Z,100.00
2022-09-23T03:50:22.691Z,100.00
2022-09-23T03:52:55.818Z,100.00
2022-09-23T03:55:26.502Z,100.00
2022-09-23T03:57:55.653Z,100.00
2022-09-23T04:00:24.080Z,100.00
2022-09-23T04:02:55.889Z,100.00
2022-09-23T04:05:28.167Z,100.00
2022-09-23T04:07:58.711Z,100.00
2022-09-23T04:10:27.061Z,100.00
2022-09-23T04:12:55.091Z,100.00
2022-09-23T04:15:23.187Z,100.00
2022-09-23T04:17:51.290Z,100.00
2022-09-23T04:20:20.661Z,100.00
2022-09-23T04:22:48.715Z,100.00
2022-09-23T04:25:18.392Z,100.00
2022-09-23T04:27:46.656Z,100.00
2022-09-23T04:30:15.230Z,100.00
2022-09-23T04:32:43.425Z,100.00
2022-09-23T04:35:11.445Z,100.00
2022-09-23T04:37:44.818Z,100.00
2022-09-23T04:40:12.971Z,100.00
2022-09-23T04:42:42.698Z,100.00
2022-09-23T04:45:11.715Z,100.00
2022-09-23T04:47:39.704Z,100.00
2022-09-23T04:50:09.015Z,100.00
2022-09-23T04:52:40.501Z,100.00
2022-09-23T04:55:11.340Z,100.00
2022-09-23T04:57:39.712Z,100.00
2022-09-23T05:00:12.197Z,100.00
2022-09-23T05:02:44.523Z,100.00
2022-09-23T05:05:13.388Z,100.00
2022-09-23T05:07:41.684Z,100.00
2022-09-23T05:10:10.228Z,100.00
2022-09-23T05:12:38.361Z,100.00
2022-09-23T05:15:07.421Z,100.00
2022-09-23T05:17:41.139Z,100.00
2022-09-23T05:20:10.450Z,100.00
2022-09-23T05:22:38.545Z,100.00
2022-09-23T05:25:07.411Z,100.00
2022-09-23T05:27:35.486Z,100.00
2022-09-23T05:30:03.678Z,100.00
2022-09-23T05:32:31.992Z,100.00
2022-09-23T05:35:01.931Z,100.00
2022-09-23T05:37:33.190Z,100.00
2022-09-23T05:40:02.429Z,100.00
2022-09-23T05:42:30.456Z,100.00
2022-09-23T05:44:58.693Z,100.00
2022-09-23T05:47:26.813Z,100.00
2022-09-23T05:49:59.891Z,100.00
2022-09-23T05:52:29.803Z,100.00
2022-09-23T05:54:59.952Z,100.00
2022-09-23T05:57:27.997Z,100.00
2022-09-23T05:59:56.163Z,100.00
2022-09-23T06:02:25.586Z,100.00
2022-09-23T06:04:53.677Z,100.00
2022-09-23T06:07:21.759Z,100.00
2022-09-23T06:09:55.660Z,100.00
2022-09-23T06:12:25.367Z,100.00
2022-09-23T06:14:53.565Z,100.00
2022-09-23T06:17:21.720Z,100.00
2022-09-23T06:19:50.217Z,100.00
2022-09-23T06:22:18.802Z,100.00
2022-09-23T06:24:46.853Z,100.00
2022-09-23T06:27:36.697Z,100.00
2022-09-23T06:30:09.026Z,100.00
2022-09-23T06:32:37.278Z,100.00
2022-09-23T06:35:06.612Z,100.00
2022-09-23T06:37:35.675Z,100.00
2022-09-23T06:40:03.957Z,100.00
2022-09-23T06:42:57.879Z,100.00
2022-09-23T06:45:27.179Z,100.00
2022-09-23T06:47:57.949Z,100.00
2022-09-23T06:50:27.311Z,100.00
2022-09-23T06:52:56.771Z,100.00
2022-09-23T06:55:27.299Z,100.00
2022-09-23T06:58:00.466Z,100.00
2022-09-23T07:00:29.287Z,100.00
2022-09-23T07:02:58.332Z,100.00
2022-09-23T07:05:26.398Z,100.00
2022-09-23T07:07:54.758Z,100.00
2022-09-23T07:10:23.153Z,100.00
2022-09-23T07:12:51.647Z,100.00
2022-09-23T07:15:21.100Z,100.00
2022-09-23T07:17:51.241Z,100.00
2022-09-23T07:20:19.330Z,100.00
2022-09-23T07:22:52.476Z,100.00
2022-09-23T07:25:20.507Z,100.00
2022-09-23T07:27:48.979Z,100.00
2022-09-23T07:30:24.316Z,100.00
2022-09-23T07:32:54.893Z,100.00
2022-09-23T07:35:23.125Z,100.00
2022-09-23T07:37:51.892Z,100.00
2022-09-23T07:40:20.010Z,100.00
2022-09-23T07:42:51.455Z,100.00
2022-09-23T07:45:22.642Z,100.00
2022-09-23T07:47:56.400Z,100.00
2022-09-23T07:50:28.883Z,100.00
2022-09-23T07:52:57.044Z,100.00
2022-09-23T07:55:27.532Z,100.00
2022-09-23T07:57:56.862Z,100.00
2022-09-23T08:00:24.952Z,100.00
2022-09-23T08:02:53.328Z,100.00
2022-09-23T08:05:24.333Z,100.00
2022-09-23T08:07:52.345Z,100.00
2022-09-23T08:10:20.927Z,100.00
2022-09-23T08:12:49.085Z,100.00
2022-09-23T08:15:18.402Z,100.00
2022-09-23T08:17:52.493Z,100.00
2022-09-23T08:20:34.364Z,100.00
2022-09-23T08:23:04.027Z,100.00
2022-09-23T08:25:34.732Z,100.00
2022-09-23T08:28:04.880Z,100.00
2022-09-23T08:30:33.241Z,100.00
2022-09-23T08:33:01.392Z,100.00
2022-09-23T08:35:29.514Z,100.00
2022-09-23T08:37:59.659Z,100.00
2022-09-23T08:40:29.378Z,100.00
2022-09-23T08:42:57.583Z,100.00
2022-09-23T08:45:28.264Z,100.00
2022-09-23T08:48:09.537Z,100.00
2022-09-23T08:50:43.648Z,100.00
2022-09-23T08:53:18.443Z,100.00
2022-09-23T08:55:54.592Z,100.00
2022-09-23T08:58:38.529Z,100.00
2022-09-23T09:01:19.945Z,100.00
2022-09-23T09:03:53.830Z,100.00
2022-09-23T09:06:28.872Z,100.00
2022-09-23T09:09:01.494Z,100.00
2022-09-23T09:11:37.650Z,98.12
2022-09-23T09:14:18.836Z,98.19
2022-09-23T09:17:00.433Z,94.82
2022-09-23T09:19:53.993Z,95.28
2022-09-23T09:25:19.943Z,94.22
2022-09-23T09:27:57.859Z,92.32
2022-09-23T09:30:26.277Z,93.85
2022-09-23T09:33:01.735Z,92.36
2022-09-23T09:35:37.936Z,90.53
2022-09-23T09:38:06.950Z,89.28
2022-09-23T09:40:35.763Z,88.93
2022-09-23T09:43:05.751Z,88.29
2022-09-23T09:45:57.762Z,87.74
2022-09-23T09:48:33.339Z,87.98
2022-09-23T09:51:19.525Z,85.41
2022-09-23T09:53:47.743Z,86.99
2022-09-23T09:56:17.606Z,86.88
2022-09-23T09:58:51.041Z,87.47
2022-09-23T10:01:21.921Z,87.11
2022-09-23T10:03:56.911Z,88.87
2022-09-23T10:06:28.377Z,89.34
2022-09-23T10:09:13.688Z,88.18
2022-09-23T10:11:42.723Z,88.26
2022-09-23T10:14:19.152Z,87.34
2022-09-23T10:16:48.979Z,87.85
2022-09-23T10:19:26.574Z,88.31
2022-09-23T10:21:59.942Z,89.49
2022-09-23T10:24:32.337Z,88.59
2022-09-23T10:27:04.379Z,88.63
2022-09-23T10:29:39.418Z,88.50
2022-09-23T10:32:26.959Z,87.82
2022-09-23T10:34:58.749Z,89.15
2022-09-23T10:37:38.907Z,92.76
2022-09-23T10:40:34.965Z,95.17
2022-09-23T10:43:41.253Z,96.87
2022-09-23T10:46:36.760Z,97.34
2022-09-23T10:49:37.175Z,98.52
2022-09-23T10:52:32.385Z,99.04
2022-09-23T10:55:12.934Z,98.78
2022-09-23T10:58:00.773Z,98.06
2022-09-23T11:00:40.898Z,97.76
2022-09-23T11:04:01.350Z,98.74
2022-09-23T11:06:41.927Z,97.90
2022-09-23T11:09:26.493Z,95.20
2022-09-23T11:12:08.654Z,92.15
2022-09-23T11:14:59.114Z,92.47
2022-09-23T11:17:50.681Z,91.67
2022-09-23T11:20:36.318Z,91.32
2022-09-23T11:23:49.593Z,90.49
2022-09-23T11:26:33.313Z,89.57
2022-09-23T11:29:36.737Z,88.71
2022-09-23T11:32:20.955Z,87.76
2022-09-23T11:35:03.349Z,88.30
2022-09-23T11:37:36.855Z,88.21
2022-09-23T11:40:08.904Z,88.54
2022-09-23T11:42:48.405Z,88.60
2022-09-23T11:45:23.471Z,88.32
2022-09-23T11:47:57.128Z,89.25
2022-09-23T11:50:31.328Z,88.19
2022-09-23T11:53:09.319Z,86.85
2022-09-23T11:55:54.983Z,87.74
2022-09-23T11:58:30.746Z,89.33
2022-09-23T12:01:07.485Z,89.38
2022-09-23T12:03:52.417Z,89.95
2022-09-23T12:06:23.686Z,91.63
2022-09-23T12:09:05.519Z,90.83
2022-09-23T12:11:43.064Z,88.93
2022-09-23T12:14:22.801Z,89.44
2022-09-23T12:17:07.921Z,89.17
2022-09-23T12:20:19.577Z,86.68
2022-09-23T12:23:02.371Z,88.76
2022-09-23T12:25:47.824Z,90.27
2022-09-23T12:28:21.423Z,90.26
2022-09-23T12:30:57.143Z,90.71
2022-09-23T12:33:27.708Z,90.06
2022-09-23T12:36:03.317Z,90.00
2022-09-23T12:38:36.441Z,91.00
2022-09-23T12:41:22.147Z,90.95
2022-09-23T12:43:56.311Z,91.93
2022-09-23T12:46:28.510Z,92.35
2022-09-23T12:49:01.858Z,92.55
2022-09-23T12:51:31.176Z,92.87
2022-09-23T12:54:21.952Z,92.20
2022-09-23T12:57:15.088Z,92.08
2022-09-23T13:00:19.746Z,90.26
2022-09-23T13:03:25.460Z,91.92
2022-09-23T13:06:19.578Z,92.08
2022-09-23T13:08:50.649Z,91.81
2022-09-23T13:11:23.850Z,91.31
2022-09-23T13:13:53.101Z,92.12
2022-09-23T13:16:26.414Z,91.21
2022-09-23T13:18:57.605Z,91.40
2022-09-23T13:22:08.054Z,91.23
2022-09-23T13:24:40.770Z,90.86
2022-09-23T13:27:22.103Z,91.82
2022-09-23T13:29:57.725Z,89.71
2022-09-23T13:32:31.790Z,89.80
2022-09-23T13:35:03.815Z,90.29
2022-09-23T13:37:41.015Z,90.32
2022-09-23T13:40:20.196Z,90.80
2022-09-23T13:42:53.035Z,90.64
2022-09-23T13:45:24.415Z,90.18
2022-09-23T13:47:54.405Z,89.79
2022-09-23T13:50:31.536Z,88.47
2022-09-23T13:53:07.470Z,87.24
2022-09-23T13:55:41.567Z,87.12
2022-09-23T13:58:19.926Z,86.58
2022-09-23T14:00:49.501Z,86.25
2022-09-23T14:03:20.026Z,84.40
2022-09-23T14:05:51.753Z,84.94
2022-09-23T14:08:20.459Z,84.26
2022-09-23T14:10:49.306Z,81.88
2022-09-23T14:13:25.754Z,83.20
2022-09-23T14:15:58.343Z,81.46
2022-09-23T14:18:34.587Z,81.87
2022-09-23T14:21:04.436Z,80.10
2022-09-23T14:23:32.741Z,80.93
2022-09-23T14:26:03.225Z,82.10
2022-09-23T14:28:31.591Z,81.55
2022-09-23T14:31:00.808Z,79.66
2022-09-23T14:33:32.855Z,79.61
2022-09-23T14:36:09.163Z,79.45
2022-09-23T14:38:51.832Z,78.52
2022-09-23T14:41:26.262Z,78.11
2022-09-23T14:43:59.437Z,75.99
2022-09-23T14:46:33.519Z,76.48
2022-09-23T14:49:07.104Z,76.12
2022-09-23T14:51:49.436Z,75.85
2022-09-23T14:54:42.762Z,74.99
2022-09-23T14:57:27.141Z,75.96
2022-09-23T14:59:59.885Z,75.66
2022-09-23T15:02:33.875Z,76.91
2022-09-23T15:05:19.752Z,75.54
2022-09-23T15:07:53.775Z,75.71
2022-09-23T15:10:29.158Z,75.50
2022-09-23T15:13:06.822Z,74.47
2022-09-23T15:15:35.875Z,75.49
2022-09-23T15:18:06.502Z,75.69
2022-09-23T15:20:35.849Z,77.04
2022-09-23T15:23:05.924Z,78.03
2022-09-23T15:25:35.857Z,78.87
2022-09-23T15:28:18.345Z,79.40
2022-09-23T15:30:46.922Z,80.68
2022-09-23T15:33:16.527Z,80.52
2022-09-23T15:35:47.588Z,82.50
2022-09-23T15:38:17.948Z,83.95
2022-09-23T15:40:48.785Z,84.39
2022-09-23T15:43:21.068Z,85.26
2022-09-23T15:45:53.032Z,86.13
2022-09-23T15:48:24.139Z,86.23
2022-09-23T15:50:53.136Z,86.73
2022-09-23T15:53:26.388Z,86.89
2022-09-23T15:55:54.873Z,87.58
2022-09-23T15:58:25.286Z,87.54
2022-09-23T16:00:56.958Z,87.84
2022-09-23T16:03:50.449Z,89.20
2022-09-23T16:06:20.573Z,89.79
2022-09-23T16:08:51.112Z,90.17
2022-09-23T16:11:20.892Z,90.65
2022-09-23T16:13:49.087Z,90.87
2022-09-23T16:16:17.583Z,90.83
2022-09-23T16:18:45.744Z,90.83
2022-09-23T16:21:14.695Z,91.69
2022-09-23T16:23:49.320Z,92.29
2022-09-23T16:26:20.907Z,92.86
2022-09-23T16:28:50.995Z,93.24
2022-09-23T16:31:37.005Z,93.56
2022-09-23T16:34:07.839Z,94.21
2022-09-23T16:36:39.846Z,94.83
2022-09-23T16:39:11.415Z,95.03
2022-09-23T16:41:45.767Z,96.05
2022-09-23T16:44:14.569Z,96.86
2022-09-23T16:46:43.402Z,97.07
2022-09-23T16:49:12.809Z,98.03
2022-09-23T16:51:50.100Z,98.55
2022-09-23T16:54:19.426Z,98.31
2022-09-23T16:56:48.997Z,99.18
2022-09-23T16:59:17.797Z,99.18
2022-09-23T17:02:03.737Z,99.75
2022-09-23T17:04:32.306Z,100.00
2022-09-23T17:07:00.688Z,100.00
2022-09-23T17:09:30.404Z,100.00
2022-09-23T17:12:14.003Z,100.00
2022-09-23T17:14:42.563Z,100.00
2022-09-23T17:17:10.863Z,100.00
2022-09-23T17:19:41.492Z,100.00
2022-09-23T17:22:09.985Z,100.00
2022-09-23T17:24:38.558Z,100.00
2022-09-23T17:27:08.229Z,100.00
2022-09-23T17:29:36.765Z,100.00
2022-09-23T17:32:05.599Z,100.00
2022-09-23T17:34:33.754Z,100.00
2022-09-23T17:37:02.862Z,100.00
2022-09-23T17:39:32.933Z,100.00
2022-09-23T17:42:01.825Z,100.00
2022-09-23T17:44:32.584Z,100.00
2022-09-23T17:47:00.929Z,100.00
2022-09-23T17:49:32.393Z,100.00
2022-09-23T17:52:04.272Z,100.00
2022-09-23T17:54:33.296Z,100.00
2022-09-23T17:57:01.524Z,100.00
2022-09-23T17:59:31.105Z,100.00
2022-09-23T18:02:00.093Z,100.00
2022-09-23T18:04:28.283Z,100.00
2022-09-23T18:06:56.391Z,100.00
2022-09-23T18:09:24.755Z,100.00
2022-09-23T18:11:52.871Z,100.00
2022-09-23T18:14:25.431Z,100.00
2022-09-23T18:16:55.693Z,100.00
2022-09-23T18:19:25.311Z,100.00
2022-09-23T18:21:56.178Z,100.00
2022-09-23T18:24:32.498Z,100.00
2022-09-23T18:27:01.666Z,100.00
2022-09-23T18:29:29.992Z,100.00
2022-09-23T18:32:00.139Z,100.00
2022-09-23T18:34:28.945Z,100.00
2022-09-23T18:36:57.381Z,100.00
2022-09-23T18:39:30.621Z,100.00
2022-09-23T18:41:58.835Z,100.00
2022-09-23T18:44:29.011Z,100.00
2022-09-23T18:46:57.438Z,100.00
2022-09-23T18:49:46.143Z,100.00
2022-09-23T18:52:14.233Z,100.00
2022-09-23T18:54:54.362Z,100.00
2022-09-23T18:57:23.333Z,100.00
2022-09-23T18:59:51.420Z,100.00
2022-09-23T19:02:21.257Z,100.00
2022-09-23T19:04:52.718Z,100.00
2022-09-23T19:07:20.873Z,100.00
2022-09-23T19:09:51.143Z,100.00
2022-09-23T19:12:19.176Z,100.00
2022-09-23T19:14:47.717Z,100.00
2022-09-23T19:17:16.484Z,100.00
2022-09-23T19:19:45.964Z,100.00
2022-09-23T19:22:16.814Z,100.00
2022-09-23T19:24:45.489Z,100.00
2022-09-23T19:27:13.723Z,100.00
2022-09-23T19:29:47.527Z,100.00
2022-09-23T19:32:16.468Z,100.00
2022-09-23T19:34:45.924Z,100.00
2022-09-23T19:37:16.694Z,100.00
2022-09-23T19:39:45.167Z,100.00
2022-09-23T19:42:13.263Z,100.00
2022-09-23T19:44:41.303Z,100.00
2022-09-23T19:47:15.495Z,100.00
2022-09-23T19:49:43.789Z,100.00
2022-09-23T19:52:11.838Z,100.00
2022-09-23T19:54:41.703Z,100.00
2022-09-23T19:57:10.359Z,100.00
2022-09-23T19:59:39.438Z,100.00
2022-09-23T20:02:10.777Z,100.00
2022-09-23T20:04:38.913Z,100.00
2022-09-23T20:07:09.029Z,100.00
2022-09-23T20:09:37.594Z,100.00
2022-09-23T20:12:10.392Z,100.00
2022-09-23T20:14:38.810Z,100.00
2022-09-23T20:17:07.769Z,100.00
2022-09-23T20:19:36.658Z,100.00
2022-09-23T20:22:33.474Z,100.00
2022-09-23T20:25:02.887Z,100.00
2022-09-23T20:27:31.991Z,100.00
2022-09-23T20:30:00.620Z,100.00
2022-09-23T20:32:29.209Z,100.00
2022-09-23T20:34:57.301Z,100.00
2022-09-23T20:37:26.039Z,100.00
2022-09-23T20:39:54.660Z,100.00
2022-09-23T20:42:22.851Z,100.00
2022-09-23T20:44:52.406Z,100.00
2022-09-23T20:47:20.837Z,100.00
2022-09-23T20:49:49.079Z,100.00
2022-09-23T20:52:20.400Z,100.00
2022-09-23T20:54:51.937Z,100.00
2022-09-23T20:57:21.651Z,100.00
2022-09-23T20:59:50.279Z,100.00
2022-09-23T21:02:20.200Z,100.00
2022-09-23T21:04:49.703Z,100.00
2022-09-23T21:07:17.897Z,100.00
2022-09-23T21:09:46.003Z,100.00
2022-09-23T21:12:14.076Z,100.00
2022-09-23T21:14:42.266Z,100.00
2022-09-23T21:17:10.430Z,100.00
2022-09-23T21:19:40.109Z,100.00
2022-09-23T21:22:08.692Z,100.00
2022-09-23T21:27:25.225Z,100.00
2022-09-23T21:30:12.749Z,100.00
2022-09-23T21:32:40.949Z,100.00
2022-09-23T21:35:14.173Z,100.00
2022-09-23T21:37:42.321Z,100.00
2022-09-23T21:40:25.112Z,100.00
2022-09-23T21:42:53.387Z,100.00
2022-09-23T21:45:35.812Z,100.00
2022-09-23T21:48:05.504Z,100.00
2022-09-23T21:50:40.889Z,100.00
2022-09-23T21:53:09.404Z,100.00
2022-09-23T21:55:37.658Z,100.00
2022-09-23T21:58:05.813Z,100.00
2022-09-23T22:00:33.992Z,100.00
2022-09-23T22:03:02.595Z,100.00
2022-09-23T22:05:32.422Z,100.00
2022-09-23T22:08:02.172Z,100.00
2022-09-23T22:10:30.226Z,100.00
2022-09-23T22:12:59.000Z,100.00
2022-09-23T22:15:27.031Z,100.00
2022-09-23T22:17:55.226Z,100.00
2022-09-23T22:20:23.252Z,100.00
2022-09-23T22:22:53.490Z,100.00
2022-09-23T22:25:23.149Z,100.00
2022-09-23T22:28:10.744Z,100.00
2022-09-23T22:30:57.687Z,100.00
2022-09-23T22:33:26.797Z,100.00
2022-09-23T22:36:02.724Z,100.00
2022-09-23T22:38:31.205Z,100.00
2022-09-23T22:41:01.009Z,100.00
2022-09-23T22:43:29.429Z,100.00
2022-09-23T22:45:57.529Z,100.00
2022-09-23T22:48:38.010Z,100.00
2022-09-23T22:51:06.337Z,100.00
2022-09-23T22:53:34.446Z,100.00
2022-09-23T22:56:04.093Z,100.00
2022-09-23T22:58:32.944Z,100.00
2022-09-23T23:01:02.613Z,100.00
2022-09-23T23:03:35.966Z,100.00
2022-09-23T23:06:05.502Z,100.00
2022-09-23T23:08:35.856Z,100.00
2022-09-23T23:11:10.404Z,100.00
2022-09-23T23:13:40.970Z,100.00
2022-09-23T23:16:12.123Z,100.00
2022-09-23T23:18:57.257Z,100.00
2022-09-23T23:21:26.082Z,100.00
2022-09-23T23:23:54.764Z,100.00
2022-09-23T23:26:26.418Z,100.00
2022-09-23T23:28:55.735Z,100.00
2022-09-23T23:31:26.216Z,100.00
2022-09-23T23:33:55.345Z,100.00
2022-09-23T23:36:24.697Z,100.00
2022-09-23T23:38:52.980Z,100.00
2022-09-23T23:41:24.101Z,100.00
2022-09-23T23:43:56.647Z,100.00
2022-09-23T23:46:26.637Z,100.00
2022-09-23T23:48:55.357Z,100.00
2022-09-23T23:51:25.445Z,100.00
2022-09-23T23:53:54.546Z,100.00
2022-09-23T23:56:26.415Z,100.00
2022-09-23T23:58:55.809Z,100.00
